Time;durP1;ratioP1;P1;durP2;ratioP2;P2;SDS_P1;SDS_P2;PMS_P1;PMS_P2;Temp;Humidity;BMP_temperature;BMP_pressure;BME280_temperature;BME280_humidity;BME280_pressure;Samples;Min_cycle;Max_cycle;Signal;HPM_P1;HPM_P2
2022/11/11 00:01:29;;;;;;;91.35;46.47;;;;;;;9.66;81.78;100981.94;5107441;28;20034;-68
2022/11/11 00:03:55;;;;;;;94.40;45.30;;;;;;;9.60;81.27;100972.72;5108007;28;20355;-68
2022/11/11 00:06:20;;;;;;;88.68;44.30;;;;;;;9.49;81.16;100978.88;5103700;28;20262;-68
2022/11/11 00:08:47;;;;;;;94.85;45.05;;;;;;;9.56;81.56;100976.56;5106358;28;20034;-68
2022/11/11 00:11:14;;;;;;;84.75;42.88;;;;;;;9.52;81.38;100977.78;5103681;28;20372;-68
2022/11/11 00:13:41;;;;;;;78.45;41.60;;;;;;;9.32;79.72;100975.88;5103711;28;20027;-68
2022/11/11 00:16:14;;;;;;;78.93;39.20;;;;;;;9.21;78.68;100990.81;5109108;28;20047;-68
2022/11/11 00:27:08;;;;;;;74.07;40.80;;;;;;;9.20;79.03;100980.34;5105188;28;20050;-68
2022/11/11 00:29:33;;;;;;;83.97;41.65;;;;;;;9.10;80.91;100984.69;5104764;28;20040;-68
2022/11/11 00:35:51;;;;;;;99.55;46.35;;;;;;;9.08;82.75;100990.09;5109051;28;20047;-68
2022/11/11 00:37:28;;;;;;;90.63;48.17;;;;;;;9.00;82.09;100987.22;5103580;28;20105;-68
2022/11/11 00:39:53;;;;;;;83.18;41.25;;;;;;;8.94;79.57;100985.91;5103806;28;20055;-68
2022/11/11 00:42:19;;;;;;;87.35;41.47;;;;;;;8.84;78.31;100984.13;5103099;28;20032;-68
2022/11/11 00:44:44;;;;;;;87.50;44.38;;;;;;;8.65;78.16;100990.00;5103187;28;20061;-68
2022/11/11 00:52:37;;;;;;;80.35;41.55;;;;;;;8.52;78.46;100973.44;5108463;28;20073;-68
2022/11/11 00:55:03;;;;;;;80.47;42.05;;;;;;;8.62;79.60;100980.53;5085154;28;20020;-68
2022/11/11 00:57:29;;;;;;;86.65;43.30;;;;;;;8.52;79.64;100957.59;5104802;28;20071;-68
2022/11/11 00:59:54;;;;;;;98.03;45.67;;;;;;;8.71;78.90;100981.59;5102802;28;20016;-67
2022/11/11 01:02:19;;;;;;;87.05;46.38;;;;;;;8.79;80.99;100975.72;5104017;28;20044;-67
2022/11/11 01:04:45;;;;;;;95.55;47.55;;;;;;;8.85;81.54;100969.97;5102612;28;20039;-68
2022/11/11 01:07:10;;;;;;;83.78;45.50;;;;;;;8.91;80.00;100969.47;5097407;28;20020;-68
2022/11/11 01:09:35;;;;;;;95.63;48.20;;;;;;;8.90;78.88;100967.78;5104780;28;20027;-68
2022/11/11 01:12:01;;;;;;;95.68;46.08;;;;;;;8.77;78.91;100959.16;5102084;28;20088;-68
2022/11/11 01:14:26;;;;;;;101.20;49.40;;;;;;;8.70;82.00;100961.44;5104971;28;20044;-68
2022/11/11 01:16:51;;;;;;;108.25;49.85;;;;;;;8.82;82.99;100955.19;5104891;28;20068;-68
2022/11/11 01:19:17;;;;;;;101.10;49.53;;;;;;;8.92;81.76;100956.16;5103513;28;20043;-68
2022/11/11 01:21:42;;;;;;;106.05;50.72;;;;;;;8.62;81.65;100901.31;5105373;28;20055;-68
2022/11/11 01:24:08;;;;;;;95.05;48.55;;;;;;;8.75;81.31;100942.59;5104503;28;20020;-68
2022/11/11 01:26:33;;;;;;;96.32;45.60;;;;;;;8.78;80.44;100947.63;5105344;28;20103;-68
2022/11/11 01:28:58;;;;;;;98.85;48.13;;;;;;;8.68;78.96;100946.69;5102153;28;20095;-67
2022/11/11 01:31:25;;;;;;;97.53;46.20;;;;;;;8.61;80.00;100939.25;5104684;28;20042;-67
2022/11/11 01:33:51;;;;;;;92.65;45.47;;;;;;;8.70;79.26;100942.97;5103489;28;20039;-68
2022/11/11 01:36:17;;;;;;;100.80;49.45;;;;;;;8.75;80.98;100932.88;5101497;28;20142;-68
2022/11/11 01:38:43;;;;;;;94.72;48.88;;;;;;;8.85;82.63;100927.69;5085383;28;20035;-68
2022/11/11 01:41:33;;;;;;;106.50;50.67;;;;;;;9.07;83.76;100932.09;5105637;28;20372;-68
2022/11/11 01:43:58;;;;;;;100.82;52.08;;;;;;;9.13;84.23;100936.91;5105112;28;20251;-68
2022/11/11 01:46:27;;;;;;;99.07;51.13;;;;;;;9.01;85.09;100933.44;5104976;28;20107;-68
2022/11/11 01:49:18;;;;;;;98.85;48.80;;;;;;;8.87;82.74;100931.06;5103022;28;20217;-68
2022/11/11 01:51:46;;;;;;;89.45;47.33;;;;;;;8.77;80.04;100933.59;5103012;28;20310;-68
2022/11/11 01:54:20;;;;;;;96.47;48.03;;;;;;;8.70;81.57;100940.31;5101465;28;20054;-68
2022/11/11 01:56:49;;;;;;;93.40;48.85;;;;;;;8.57;83.01;100935.16;5102934;28;20368;-68
2022/11/11 01:59:16;;;;;;;91.68;47.42;;;;;;;8.60;83.97;100953.41;5102721;28;20190;-68
2022/11/11 02:01:43;;;;;;;93.30;47.63;;;;;;;8.59;84.27;100953.53;5106085;28;20400;-68
2022/11/11 02:06:57;;;;;;;91.28;47.05;;;;;;;8.26;85.32;100956.91;5107639;28;20031;-68
2022/11/11 02:09:24;;;;;;;96.53;48.17;;;;;;;8.40;85.40;100954.09;5105526;28;20039;-67
2022/11/11 02:14:41;;;;;;;88.40;47.80;;;;;;;8.30;85.89;100958.34;5107442;28;20221;-68
2022/11/11 02:17:12;;;;;;;84.28;45.03;;;;;;;8.51;85.32;100958.56;5103399;28;20036;-68
2022/11/11 02:19:43;;;;;;;84.10;45.22;;;;;;;8.50;85.56;100959.50;5109742;28;20333;-68
2022/11/11 02:22:15;;;;;;;89.90;45.83;;;;;;;8.56;85.59;100956.41;5110317;28;20059;-68
2022/11/11 02:24:41;;;;;;;89.10;45.85;;;;;;;8.64;85.23;100965.41;5106787;28;20374;-68
2022/11/11 02:27:11;;;;;;;80.72;44.45;;;;;;;8.69;84.54;100961.56;5107204;28;20098;-68
2022/11/11 02:29:37;;;;;;;84.63;44.28;;;;;;;8.59;85.13;100951.72;5108639;28;20140;-68
2022/11/11 02:32:03;;;;;;;91.07;46.88;;;;;;;8.52;85.52;100971.63;5107327;28;20028;-68
2022/11/11 02:34:31;;;;;;;90.45;45.28;;;;;;;8.44;86.50;100954.72;5090199;28;20059;-68
2022/11/11 02:36:58;;;;;;;96.70;47.22;;;;;;;8.47;86.81;100957.13;5105555;28;20326;-68
2022/11/11 02:39:25;;;;;;;88.75;46.78;;;;;;;8.46;86.87;100958.06;5107784;28;20078;-68
2022/11/11 02:41:56;;;;;;;92.32;47.72;;;;;;;8.31;87.23;100965.31;5105615;28;20664;-68
2022/11/11 02:44:22;;;;;;;96.25;47.63;;;;;;;8.55;86.45;100973.19;5109356;28;20381;-68
2022/11/11 02:46:48;;;;;;;84.90;47.53;;;;;;;8.35;87.20;100960.69;5108553;28;20328;-68
2022/11/11 02:49:13;;;;;;;91.20;46.63;;;;;;;8.42;86.69;100967.19;5104997;28;20036;-68
2022/11/11 02:51:39;;;;;;;90.68;46.35;;;;;;;8.49;86.27;100949.91;5108059;28;20035;-67
2022/11/11 02:54:04;;;;;;;92.45;46.58;;;;;;;8.44;86.22;100960.84;5106180;28;20016;-67
2022/11/11 02:59:14;;;;;;;89.60;45.30;;;;;;;8.63;85.10;100961.09;5104843;28;20027;-68
2022/11/11 03:01:39;;;;;;;91.57;46.13;;;;;;;8.38;86.16;100934.06;5106552;28;20850;-68
2022/11/11 03:04:05;;;;;;;93.55;46.10;;;;;;;8.26;87.09;100952.47;5109168;28;20039;-68
2022/11/11 03:06:30;;;;;;;83.57;45.17;;;;;;;8.43;86.79;100960.94;5104118;28;20027;-68
2022/11/11 03:08:56;;;;;;;95.10;49.30;;;;;;;8.46;87.06;100952.78;5107175;28;20036;-68
2022/11/11 03:11:27;;;;;;;93.75;49.13;;;;;;;8.33;86.41;100960.81;5090042;28;20031;-68
2022/11/11 03:13:54;;;;;;;92.93;47.72;;;;;;;8.42;86.89;100961.91;5106422;28;20093;-68
2022/11/11 03:19:04;;;;;;;90.00;46.97;;;;;;;8.46;86.61;100961.56;5106519;28;20047;-68
2022/11/11 03:21:29;;;;;;;88.85;45.72;;;;;;;8.64;84.88;100961.91;5107369;28;20032;-68
2022/11/11 03:23:54;;;;;;;92.78;46.60;;;;;;;8.76;84.58;100960.97;5103718;28;20095;-68
2022/11/11 03:26:20;;;;;;;89.55;44.80;;;;;;;8.70;84.44;100960.59;5108348;28;20321;-68
2022/11/11 03:28:45;;;;;;;87.50;45.05;;;;;;;8.58;84.72;100963.25;5107861;28;20032;-68
2022/11/11 03:31:11;;;;;;;91.80;46.45;;;;;;;8.55;85.00;100960.84;5088983;28;20039;-68
2022/11/11 03:33:36;;;;;;;90.55;45.63;;;;;;;8.56;84.56;100956.41;5105029;28;20023;-67
2022/11/11 03:36:01;;;;;;;82.88;46.15;;;;;;;8.61;84.31;100962.16;5105292;28;20341;-68
2022/11/11 03:38:27;;;;;;;89.80;44.58;;;;;;;8.49;84.66;100958.69;5104439;28;20080;-68
2022/11/11 03:40:55;;;;;;;89.72;47.10;;;;;;;8.47;84.22;100957.13;5103814;28;20111;-68
2022/11/11 03:43:25;;;;;;;91.35;47.50;;;;;;;8.29;84.95;100944.31;5104999;28;20015;-68
2022/11/11 03:45:53;;;;;;;89.68;46.55;;;;;;;8.47;84.42;100957.94;5108881;28;20098;-68
2022/11/11 03:48:18;;;;;;;88.07;46.20;;;;;;;8.54;84.11;100960.97;5105160;28;20058;-68
2022/11/11 03:50:46;;;;;;;84.00;45.95;;;;;;;8.13;85.95;100950.88;5107433;28;20031;-68
2022/11/11 03:53:13;;;;;;;93.43;45.53;;;;;;;8.27;84.26;100948.88;5109311;28;20057;-68
2022/11/11 03:55:39;;;;;;;91.50;47.25;;;;;;;8.23;85.46;100949.22;5105556;28;20302;-68
2022/11/11 03:58:05;;;;;;;86.57;47.70;;;;;;;7.91;85.91;100949.03;5106175;28;20069;-68
2022/11/11 04:00:30;;;;;;;95.35;48.00;;;;;;;8.20;85.40;100960.00;5105439;28;20064;-67
2022/11/11 04:11:20;;;;;;;98.70;48.40;;;;;;;8.03;85.66;100958.66;5105304;28;20382;-68
2022/11/11 04:16:32;;;;;;;92.18;48.83;;;;;;;8.01;86.02;100952.66;5107516;28;20073;-68
2022/11/11 04:21:44;;;;;;;96.15;47.92;;;;;;;7.85;86.51;100971.44;5106834;28;20324;-68
2022/11/11 04:27:04;;;;;;;95.43;47.10;;;;;;;7.81;86.16;100971.78;5108335;28;20031;-68
2022/11/11 04:29:30;;;;;;;98.03;49.22;;;;;;;7.34;88.44;100969.06;5087460;28;20314;-68
2022/11/11 04:35:02;;;;;;;102.53;57.28;;;;;;;7.83;86.61;100978.63;5103461;28;20643;-68
2022/11/11 04:37:31;;;;;;;101.50;51.30;;;;;;;7.83;86.92;100981.25;5107451;28;20035;-68
2022/11/11 04:42:41;;;;;;;97.13;47.03;;;;;;;7.60;81.17;100985.59;5105247;28;20035;-67
2022/11/11 04:45:29;;;;;;;88.38;45.15;;;;;;;7.33;81.58;100990.25;5106174;28;20032;-67
2022/11/11 04:48:02;;;;;;;83.45;42.40;;;;;;;7.05;82.45;100996.63;5103720;28;20020;-68
2022/11/11 04:50:31;;;;;;;90.03;41.67;;;;;;;6.95;83.17;100998.22;5102082;28;20052;-68
2022/11/11 04:52:57;;;;;;;81.75;40.70;;;;;;;7.05;83.98;100996.63;5106690;28;20031;-68
2022/11/11 04:58:07;;;;;;;84.88;41.30;;;;;;;7.32;82.49;100994.66;5104281;28;20141;-68
2022/11/11 05:00:33;;;;;;;87.60;42.28;;;;;;;7.42;81.58;100986.94;5105350;28;20036;-68
2022/11/11 05:03:17;;;;;;;86.47;43.10;;;;;;;7.38;83.12;100996.03;5106421;28;20039;-67
2022/11/11 05:08:56;;;;;;;75.45;38.63;;;;;;;7.51;78.20;100996.81;5104415;28;20231;-68
2022/11/11 05:11:31;;;;;;;74.10;38.03;;;;;;;7.44;77.93;100998.22;5104921;28;20040;-68
2022/11/11 05:22:34;;;;;;;95.95;42.33;;;;;;;7.37;80.51;100989.06;5121796;28;20114;-66
2022/11/11 05:27:45;;;;;;;111.05;49.40;;;;;;;7.63;82.19;100993.28;5122690;28;20034;-67
2022/11/11 05:30:12;;;;;;;115.03;52.80;;;;;;;7.66;82.50;101002.75;5122775;28;20313;-68
2022/11/11 05:32:38;;;;;;;124.55;54.28;;;;;;;7.68;82.51;101004.31;5122382;28;20308;-68
2022/11/11 05:35:04;;;;;;;121.38;56.72;;;;;;;7.76;83.31;101002.91;5104509;28;20032;-68
2022/11/11 05:37:30;;;;;;;122.13;55.58;;;;;;;7.76;82.97;101005.56;5122336;28;20035;-68
2022/11/11 05:39:56;;;;;;;121.88;57.17;;;;;;;7.79;83.63;101007.97;5122660;28;20034;-68
2022/11/11 05:42:21;;;;;;;109.22;49.15;;;;;;;7.80;80.26;101005.22;5122513;28;20069;-67
2022/11/11 05:44:47;;;;;;;99.65;45.53;;;;;;;7.83;79.04;101015.53;5122610;28;20023;-67
2022/11/11 05:47:12;;;;;;;76.88;38.75;;;;;;;7.68;77.94;101017.50;5122367;28;20207;-67
2022/11/11 05:49:38;;;;;;;83.22;41.67;;;;;;;7.51;78.74;101017.06;5122772;28;20161;-68
2022/11/11 05:52:05;;;;;;;92.43;45.70;;;;;;;7.39;80.01;101012.69;5125029;28;20066;-67
2022/11/11 05:54:30;;;;;;;105.43;46.80;;;;;;;7.43;81.04;101016.78;5126201;28;20031;-68
2022/11/11 05:56:55;;;;;;;94.68;47.50;;;;;;;7.34;82.69;101015.63;5126659;28;20224;-68
2022/11/11 05:59:21;;;;;;;91.97;43.97;;;;;;;7.37;83.93;101018.06;5126555;28;20050;-68
2022/11/11 06:01:46;;;;;;;92.25;45.45;;;;;;;7.52;83.38;101027.50;5123180;28;20098;-68
2022/11/11 06:04:12;;;;;;;93.10;45.63;;;;;;;7.62;82.43;101035.56;5105359;28;20317;-67
2022/11/11 06:06:37;;;;;;;93.80;46.33;;;;;;;7.67;83.44;101034.28;5104268;28;20032;-67
2022/11/11 06:09:03;;;;;;;95.90;48.85;;;;;;;7.92;83.48;101029.84;5107993;28;20035;-68
2022/11/11 06:11:29;;;;;;;102.90;48.60;;;;;;;7.90;83.42;101026.47;5105403;28;20074;-68
2022/11/11 06:13:55;;;;;;;99.95;47.42;;;;;;;7.92;83.52;101035.13;5104047;28;20044;-68
2022/11/11 06:16:21;;;;;;;110.40;48.42;;;;;;;8.07;84.13;101039.25;5107521;28;20046;-68
2022/11/11 06:18:47;;;;;;;90.35;45.20;;;;;;;8.11;83.93;101032.78;5107488;28;20134;-68
2022/11/11 06:21:12;;;;;;;98.15;46.60;;;;;;;8.44;83.03;101039.19;5107580;28;20313;-68
2022/11/11 06:23:37;;;;;;;97.80;47.22;;;;;;;8.76;81.76;101042.81;5104604;28;20028;-67
2022/11/11 06:26:12;;;;;;;111.20;48.17;;;;;;;8.94;81.17;101030.81;5104820;28;20214;-67
2022/11/11 06:28:49;;;;;;;106.22;57.22;;;;;;;9.34;80.82;101050.63;5106977;28;20210;-68
2022/11/11 06:31:20;;;;;;;95.93;46.30;;;;;;;9.48;80.69;101050.38;5106602;28;20314;-68
2022/11/11 06:33:45;;;;;;;79.35;40.15;;;;;;;9.52;80.93;101054.47;5107086;28;20027;-68
2022/11/11 06:36:12;;;;;;;79.75;39.10;;;;;;;9.46;82.09;101065.53;5107169;28;20310;-68
2022/11/11 06:38:41;;;;;;;72.10;37.50;;;;;;;9.73;81.67;101063.31;5106183;28;20054;-68
2022/11/11 06:41:08;;;;;;;71.70;37.05;;;;;;;9.74;82.23;101066.78;5107846;28;20346;-68
2022/11/11 06:43:34;;;;;;;77.35;38.13;;;;;;;9.93;82.34;101065.16;5106043;28;20051;-68
2022/11/11 06:46:00;;;;;;;80.57;41.03;;;;;;;9.90;82.76;101049.53;5110187;28;20032;-68
2022/11/11 06:48:27;;;;;;;72.63;38.35;;;;;;;10.22;82.29;101061.94;5106643;28;20046;-67
2022/11/11 06:50:54;;;;;;;78.82;39.33;;;;;;;10.24;82.72;101062.66;5104732;28;20043;-68
2022/11/11 06:53:20;;;;;;;77.55;41.50;;;;;;;10.31;83.69;101063.81;5103316;28;20089;-68
2022/11/11 06:55:46;;;;;;;71.72;39.15;;;;;;;10.54;83.68;101059.28;5105873;28;20197;-68
2022/11/11 06:58:17;;;;;;;91.63;42.55;;;;;;;10.78;82.05;101061.66;5106052;28;20081;-68
2022/11/11 07:00:44;;;;;;;73.53;40.03;;;;;;;10.95;81.95;101046.94;5106450;28;20166;-68
2022/11/11 07:03:12;;;;;;;80.45;44.03;;;;;;;11.24;80.60;101055.00;5103813;28;20032;-68
2022/11/11 07:05:38;;;;;;;81.05;44.30;;;;;;;11.37;81.10;101043.19;5103127;28;20043;-68
2022/11/11 07:08:06;;;;;;;82.95;44.17;;;;;;;10.82;81.41;100947.31;5105364;28;20252;-68
2022/11/11 07:10:33;;;;;;;86.32;45.40;;;;;;;11.61;81.80;101047.31;5106342;28;20028;-67
2022/11/11 07:12:58;;;;;;;78.55;45.13;;;;;;;11.83;80.68;101041.78;5105910;28;20107;-68
2022/11/11 07:15:25;;;;;;;80.55;43.03;;;;;;;12.11;79.67;101042.78;5106313;28;20032;-68
2022/11/11 07:17:50;;;;;;;76.50;39.95;;;;;;;12.30;79.38;101042.75;5102935;28;20149;-68
2022/11/11 07:20:15;;;;;;;72.28;38.17;;;;;;;12.37;79.86;101043.03;5103611;28;20059;-68
2022/11/11 07:22:41;;;;;;;69.57;39.17;;;;;;;12.68;77.62;101041.03;5104723;28;20046;-68
2022/11/11 07:25:06;;;;;;;70.40;39.05;;;;;;;12.80;77.55;101039.88;5106495;28;20230;-69
2022/11/11 07:27:36;;;;;;;71.28;39.05;;;;;;;12.87;77.20;101045.47;5104058;28;20086;-69
2022/11/11 07:30:03;;;;;;;74.95;37.20;;;;;;;13.04;77.32;101040.22;5104032;28;20020;-68
2022/11/11 07:32:28;;;;;;;69.53;38.20;;;;;;;13.16;77.13;101035.53;5104316;28;20076;-67
2022/11/11 07:34:54;;;;;;;65.93;37.08;;;;;;;13.36;76.93;101042.47;5104143;28;20090;-67
2022/11/11 07:37:19;;;;;;;66.88;37.35;;;;;;;13.29;77.83;101043.22;5103286;28;20052;-68
2022/11/11 07:39:44;;;;;;;74.22;38.05;;;;;;;13.25;78.40;101053.31;5106712;28;20329;-68
2022/11/11 07:42:10;;;;;;;69.10;36.70;;;;;;;13.32;77.79;101056.22;5105369;28;20040;-69
2022/11/11 07:44:35;;;;;;;65.25;36.70;;;;;;;13.10;79.45;101054.75;5107506;28;20036;-69
2022/11/11 07:47:01;;;;;;;66.15;37.33;;;;;;;13.13;80.18;101064.25;5105853;28;20040;-68
2022/11/11 07:49:26;;;;;;;67.50;37.83;;;;;;;13.21;80.41;101054.59;5104968;28;20028;-69
2022/11/11 07:51:51;;;;;;;65.30;35.67;;;;;;;13.39;80.23;101052.81;5102168;28;20081;-69
2022/11/11 07:54:17;;;;;;;75.57;38.78;;;;;;;13.61;79.90;101037.44;5084712;28;20055;-69
2022/11/11 07:56:42;;;;;;;61.10;35.85;;;;;;;13.70;79.57;101052.53;5104096;28;20032;-67
2022/11/11 07:59:07;;;;;;;61.85;35.80;;;;;;;13.87;79.54;101048.19;5106812;28;20210;-67
2022/11/11 08:01:33;;;;;;;65.05;36.47;;;;;;;13.85;79.56;101043.03;5084194;28;20039;-68
2022/11/11 08:03:58;;;;;;;72.65;38.15;;;;;;;13.78;80.03;101041.13;5102817;28;20138;-69
2022/11/11 08:06:24;;;;;;;65.10;37.22;;;;;;;13.77;80.70;101036.78;5105370;28;20034;-69
2022/11/11 08:08:49;;;;;;;72.57;36.95;;;;;;;14.02;80.08;101038.69;5102078;28;20091;-69
2022/11/11 08:11:16;;;;;;;63.63;35.90;;;;;;;14.09;80.74;101033.59;5105571;28;20032;-69
2022/11/11 08:13:43;;;;;;;63.13;35.35;;;;;;;14.26;80.64;101038.91;5104391;28;20088;-69
2022/11/11 08:16:13;;;;;;;58.78;31.90;;;;;;;14.29;82.46;101045.75;5104530;28;20269;-69
2022/11/11 08:18:39;;;;;;;58.10;29.58;;;;;;;14.23;84.61;101041.03;5106680;28;20044;-69
2022/11/11 08:21:06;;;;;;;52.67;30.08;;;;;;;14.39;83.80;101042.00;5102051;28;20150;-67
2022/11/11 08:23:31;;;;;;;49.65;28.67;;;;;;;14.41;84.06;101033.84;5101062;28;20040;-67
2022/11/11 08:25:59;;;;;;;49.70;28.75;;;;;;;14.68;82.86;101039.09;5105459;28;20043;-68
2022/11/11 08:28:25;;;;;;;52.53;30.58;;;;;;;14.60;83.61;101028.38;5104296;28;20329;-69
2022/11/11 08:30:50;;;;;;;55.75;28.92;;;;;;;14.76;83.26;101037.47;5108049;28;20054;-69
2022/11/11 08:33:15;;;;;;;54.55;29.70;;;;;;;14.78;83.51;101032.81;5106561;28;20031;-69
2022/11/11 08:35:41;;;;;;;53.80;30.35;;;;;;;14.82;83.66;101040.34;5103286;28;20043;-69
2022/11/11 08:38:06;;;;;;;53.53;29.77;;;;;;;14.84;83.55;101048.19;5101459;28;20340;-69
2022/11/11 08:40:32;;;;;;;49.42;28.00;;;;;;;14.93;82.60;101047.22;5102954;28;20099;-69
2022/11/11 08:42:58;;;;;;;49.65;27.77;;;;;;;14.94;82.29;101041.75;5103606;28;20024;-69
2022/11/11 08:45:24;;;;;;;45.47;26.38;;;;;;;14.86;81.80;101041.69;5105723;28;20321;-68
2022/11/11 08:47:50;;;;;;;52.53;27.33;;;;;;;14.93;82.01;101045.41;5106747;28;21106;-67
2022/11/11 08:50:15;;;;;;;48.72;26.73;;;;;;;14.95;82.12;101047.91;5103117;28;20032;-68
2022/11/11 08:52:48;;;;;;;46.67;24.48;;;;;;;14.96;81.49;101046.91;5090091;28;20027;-69
2022/11/11 08:55:16;;;;;;;42.17;24.50;;;;;;;15.05;81.36;101053.13;5104508;28;20107;-68
2022/11/11 08:57:41;;;;;;;43.88;25.00;;;;;;;15.10;81.02;101057.00;5105907;28;20282;-69
2022/11/11 09:00:08;;;;;;;47.92;24.77;;;;;;;15.11;81.01;101052.50;5105298;28;20039;-69
2022/11/11 09:02:34;;;;;;;46.47;25.15;;;;;;;15.03;81.69;101055.97;5103640;28;20100;-69
2022/11/11 09:04:59;;;;;;;46.15;24.75;;;;;;;15.10;81.47;101057.00;5104842;28;20456;-69
2022/11/11 09:07:25;;;;;;;45.47;25.10;;;;;;;15.15;81.40;101054.69;5104676;28;20368;-69
2022/11/11 09:09:51;;;;;;;46.08;23.85;;;;;;;15.19;81.34;101053.38;5108045;28;20035;-68
2022/11/11 09:12:16;;;;;;;41.90;24.13;;;;;;;15.22;81.07;101050.38;5103082;28;20027;-67
2022/11/11 09:14:41;;;;;;;39.65;23.27;;;;;;;15.15;81.39;101049.34;5105528;28;20365;-68
2022/11/11 09:17:07;;;;;;;49.55;26.23;;;;;;;15.21;80.72;101048.69;5104147;28;20207;-68
2022/11/11 09:19:32;;;;;;;50.17;29.80;;;;;;;15.16;81.16;101050.19;5104400;28;20097;-69
2022/11/11 09:21:58;;;;;;;56.15;30.02;;;;;;;15.05;81.47;101021.94;5109514;28;20031;-69
2022/11/11 09:24:23;;;;;;;48.85;25.27;;;;;;;15.30;80.50;101055.75;5105873;28;20035;-69
2022/11/11 09:26:50;;;;;;;48.55;25.15;;;;;;;15.32;80.38;101050.25;5104541;28;20236;-69
2022/11/11 09:29:16;;;;;;;38.55;22.55;;;;;;;15.34;80.08;101059.75;5109255;28;20404;-69
2022/11/11 09:31:41;;;;;;;44.72;23.30;;;;;;;15.41;79.96;101051.94;5110826;28;20063;-67
2022/11/11 09:34:07;;;;;;;44.33;25.15;;;;;;;15.46;79.97;101056.81;5109853;28;20027;-67
2022/11/11 09:36:32;;;;;;;47.47;24.42;;;;;;;15.49;79.42;101046.63;5108550;28;20036;-68
2022/11/11 09:38:58;;;;;;;50.75;26.10;;;;;;;15.44;79.17;101053.47;5108778;28;20091;-69
2022/11/11 09:41:33;;;;;;;43.05;23.55;;;;;;;15.36;79.87;101042.75;5106245;28;20035;-69
2022/11/11 09:44:00;;;;;;;43.20;22.88;;;;;;;15.42;79.44;101050.13;5108958;28;20368;-69
2022/11/11 09:46:39;;;;;;;40.53;23.08;;;;;;;15.30;80.10;101047.75;5109191;28;20145;-69
2022/11/11 09:49:33;;;;;;;40.40;22.60;;;;;;;15.30;79.93;101041.56;5109945;28;20023;-69
2022/11/11 09:52:07;;;;;;;47.60;25.87;;;;;;;15.40;80.22;101041.44;5106632;28;20032;-69
2022/11/11 09:54:52;;;;;;;43.67;23.85;;;;;;;15.33;80.18;101042.06;5109205;28;20034;-69
2022/11/11 09:57:22;;;;;;;44.63;23.92;;;;;;;15.30;80.54;101052.25;5107514;28;20233;-67
2022/11/11 09:59:55;;;;;;;43.83;27.27;;;;;;;15.40;79.71;101044.94;5108513;28;20107;-68
2022/11/11 10:02:40;;;;;;;40.08;22.40;;;;;;;15.38;79.37;101044.25;5110809;28;20051;-69
2022/11/11 10:05:18;;;;;;;45.63;25.70;;;;;;;15.26;79.00;101049.06;5106774;28;20196;-68
2022/11/11 10:07:49;;;;;;;43.20;23.52;;;;;;;15.26;79.20;101043.72;5107031;28;20047;-69
2022/11/11 10:10:38;;;;;;;47.40;25.83;;;;;;;15.21;82.22;101047.88;5106911;28;20103;-69
2022/11/11 10:13:28;;;;;;;49.13;24.38;;;;;;;15.26;83.66;101054.41;5106711;28;20067;-69
2022/11/11 10:16:10;;;;;;;43.05;24.77;;;;;;;14.94;84.61;101056.91;5108709;28;20088;-69
2022/11/11 10:18:41;;;;;;;53.45;28.33;;;;;;;15.03;85.70;101055.97;5108003;28;20329;-68
2022/11/11 10:21:21;;;;;;;61.38;32.17;;;;;;;14.83;88.84;101052.69;5108223;28;20048;-67
2022/11/11 10:23:49;;;;;;;50.60;29.40;;;;;;;14.85;89.62;101049.84;5109350;28;20274;-69
2022/11/11 10:26:24;;;;;;;48.22;26.42;;;;;;;14.90;90.25;101053.72;5111080;28;20322;-69
2022/11/11 10:28:52;;;;;;;46.70;24.48;;;;;;;14.76;90.66;101048.97;5105966;28;20036;-69
2022/11/11 10:31:21;;;;;;;62.70;33.65;;;;;;;14.63;92.12;101048.56;5109053;28;20032;-69
2022/11/11 10:33:51;;;;;;;49.60;28.95;;;;;;;14.63;94.05;101051.22;5109107;28;20567;-69
2022/11/11 10:36:20;;;;;;;48.63;27.58;;;;;;;14.72;94.53;101049.44;5106320;28;20195;-69
2022/11/11 10:39:02;;;;;;;65.65;34.47;;;;;;;14.62;95.34;101055.72;5107308;28;20032;-69
2022/11/11 10:41:34;;;;;;;52.35;30.20;;;;;;;14.72;96.10;101054.78;5105495;28;20246;-69
2022/11/11 10:43:59;;;;;;;50.00;28.15;;;;;;;14.63;96.75;101053.88;5109000;28;20039;-68
2022/11/11 10:46:42;;;;;;;40.28;24.23;;;;;;;14.55;95.33;101057.31;5107935;28;20040;-68
2022/11/11 10:49:19;;;;;;;45.20;23.75;;;;;;;14.68;92.75;101064.91;5110005;28;20103;-68
2022/11/11 10:51:56;;;;;;;41.80;25.23;;;;;;;14.64;94.04;101059.06;5107005;28;20035;-69
2022/11/11 10:54:44;;;;;;;48.38;27.13;;;;;;;14.57;95.61;101065.16;5107852;28;20032;-69
2022/11/11 10:57:13;;;;;;;45.35;26.98;;;;;;;14.60;95.90;101062.19;5109057;28;20142;-69
2022/11/11 11:00:13;;;;;;;50.00;27.80;;;;;;;14.68;95.92;101063.09;5105480;28;20024;-69
2022/11/11 11:03:03;;;;;;;55.22;30.17;;;;;;;14.72;97.58;101068.09;5108311;28;20118;-69
2022/11/11 11:06:07;;;;;;;58.85;30.88;;;;;;;14.87;97.44;101066.53;5108245;28;20031;-69
2022/11/11 11:08:44;;;;;;;58.03;28.88;;;;;;;14.67;96.97;101065.91;5097637;28;20074;-68
2022/11/11 11:11:19;;;;;;;57.55;30.25;;;;;;;14.59;98.02;101069.34;5108368;28;20260;-68
2022/11/11 11:13:52;;;;;;;54.85;29.90;;;;;;;14.46;99.44;101068.91;5106077;28;20043;-69
2022/11/11 11:16:43;;;;;;;58.40;29.50;;;;;;;14.48;100.00;101068.75;5109032;28;20034;-69
2022/11/11 11:19:15;;;;;;;50.35;28.00;;;;;;;14.61;100.00;101066.53;5109838;28;20263;-69
2022/11/11 11:22:07;;;;;;;45.53;25.65;;;;;;;14.34;100.00;101054.94;5107283;28;20271;-69
2022/11/11 11:24:36;;;;;;;43.30;24.77;;;;;;;14.49;100.00;101049.94;5106541;28;20035;-69
2022/11/11 11:27:06;;;;;;;38.60;22.90;;;;;;;14.59;100.00;101050.69;5107480;28;20362;-69
2022/11/11 11:29:41;;;;;;;39.45;23.40;;;;;;;14.76;100.00;101046.31;5105548;28;20069;-69
2022/11/11 11:32:30;;;;;;;39.15;23.25;;;;;;;14.92;99.66;101049.06;5100033;28;20031;-68
2022/11/11 11:34:56;;;;;;;43.42;23.10;;;;;;;14.99;99.96;101044.78;5105826;28;20043;-68
2022/11/11 11:37:24;;;;;;;62.10;34.30;;;;;;;15.00;100.00;101040.28;5105184;28;20087;-69
2022/11/11 11:40:05;;;;;;;70.45;37.13;;;;;;;15.10;100.00;101045.47;5105962;28;20036;-69
2022/11/11 11:42:35;;;;;;;55.88;33.00;;;;;;;15.08;100.00;101045.66;5105000;28;20102;-69
2022/11/11 11:45:28;;;;;;;59.28;33.50;;;;;;;15.12;100.00;101041.66;5107238;28;20037;-69
2022/11/11 11:48:31;;;;;;;56.13;31.45;;;;;;;15.12;99.79;101039.00;5103213;28;20046;-69
2022/11/11 11:51:26;;;;;;;56.97;33.35;;;;;;;15.18;99.34;101038.34;5105144;28;20047;-67
2022/11/11 11:54:20;;;;;;;55.88;29.92;;;;;;;15.21;99.23;101038.03;5103980;28;20083;-69
2022/11/11 11:56:55;;;;;;;;;;;;;;;15.30;98.64;101033.56;5102951;28;20028;-69
2022/11/11 11:59:37;;;;;;;47.10;27.83;;;;;;;15.33;98.51;101033.25;5105251;28;19949;-69
2022/11/11 12:02:27;;;;;;;51.25;26.73;;;;;;;15.12;98.25;101036.31;5104969;28;20325;-69
2022/11/11 12:05:24;;;;;;;45.33;26.27;;;;;;;15.17;97.47;101039.34;5105194;28;20040;-69
2022/11/11 12:08:12;;;;;;;43.83;24.23;;;;;;;15.11;96.93;101036.47;5108167;28;20024;-69
2022/11/11 12:10:56;;;;;;;41.65;24.17;;;;;;;15.15;95.13;101030.66;5106672;28;20205;-69
2022/11/11 12:13:24;;;;;;;48.35;24.83;;;;;;;15.21;95.04;101035.38;5104156;28;20226;-69
2022/11/11 12:16:22;;;;;;;44.15;24.60;;;;;;;15.25;94.89;101034.03;5105992;28;20106;-69
2022/11/11 12:19:06;;;;;;;41.05;22.83;;;;;;;15.39;92.97;101032.59;5095084;28;20317;-69
2022/11/11 12:21:48;;;;;;;39.03;23.35;;;;;;;15.23;93.75;101028.03;5104679;28;20091;-69
2022/11/11 12:24:49;;;;;;;51.97;27.30;;;;;;;15.06;93.74;101026.28;5104254;28;20058;-69
2022/11/11 12:27:35;;;;;;;51.95;32.28;;;;;;;14.96;93.43;101025.56;5104762;28;20481;-69
2022/11/11 12:30:09;;;;;;;65.82;37.80;;;;;;;15.07;93.29;101027.13;5105399;28;20036;-69
2022/11/11 12:33:12;;;;;;;68.90;39.67;;;;;;;15.18;92.67;101026.84;5104519;28;20024;-68